sensor_id;sensor_type;location;lat;lon;timestamp;P1;durP1;ratioP1;P2;durP2;ratioP2
27269;SDS011;14769;56.934;24.176;2022-07-11T00:00:28;6.90;;;6.30;;
27269;SDS011;14769;56.934;24.176;2022-07-11T00:01:30;7.45;;;6.38;;
27269;SDS011;14769;56.934;24.176;2022-07-11T00:02:32;7.45;;;6.20;;
27269;SDS011;14769;56.934;24.176;2022-07-11T00:03:34;7.30;;;6.60;;
27269;SDS011;14769;56.934;24.176;2022-07-11T00:04:36;8.30;;;6.47;;
27269;SDS011;14769;56.934;24.176;2022-07-11T00:05:38;8.25;;;6.72;;
27269;SDS011;14769;56.934;24.176;2022-07-11T00:06:40;9.35;;;7.13;;
27269;SDS011;14769;56.934;24.176;2022-07-11T00:07:42;9.93;;;7.10;;
27269;SDS011;14769;56.934;24.176;2022-07-11T00:08:44;9.50;;;7.00;;
27269;SDS011;14769;56.934;24.176;2022-07-11T00:09:46;13.30;;;7.70;;
27269;SDS011;14769;56.934;24.176;2022-07-11T00:10:48;9.75;;;8.07;;
27269;SDS011;14769;56.934;24.176;2022-07-11T00:11:50;10.52;;;7.68;;
27269;SDS011;14769;56.934;24.176;2022-07-11T00:12:52;10.63;;;8.40;;
27269;SDS011;14769;56.934;24.176;2022-07-11T00:13:54;9.70;;;7.78;;
27269;SDS011;14769;56.934;24.176;2022-07-11T00:14:56;18.80;;;9.15;;
27269;SDS011;14769;56.934;24.176;2022-07-11T00:15:58;98.57;;;12.10;;
27269;SDS011;14769;56.934;24.176;2022-07-11T00:17:00;66.78;;;11.48;;
27269;SDS011;14769;56.934;24.176;2022-07-11T00:18:02;25.75;;;11.43;;
27269;SDS011;14769;56.934;24.176;2022-07-11T00:19:04;42.60;;;11.85;;
27269;SDS011;14769;56.934;24.176;2022-07-11T00:20:07;32.20;;;11.98;;
27269;SDS011;14769;56.934;24.176;2022-07-11T00:21:09;21.23;;;11.40;;
27269;SDS011;14769;56.934;24.176;2022-07-11T00:22:11;18.48;;;11.65;;
27269;SDS011;14769;56.934;24.176;2022-07-11T00:23:13;21.08;;;13.25;;
27269;SDS011;14769;56.934;24.176;2022-07-11T00:24:15;24.52;;;15.15;;
27269;SDS011;14769;56.934;24.176;2022-07-11T00:25:21;18.48;;;13.88;;
27269;SDS011;14769;56.934;24.176;2022-07-11T00:26:23;19.02;;;15.68;;
27269;SDS011;14769;56.934;24.176;2022-07-11T00:27:25;18.20;;;14.52;;
27269;SDS011;14769;56.934;24.176;2022-07-11T00:28:27;21.25;;;14.82;;
27269;SDS011;14769;56.934;24.176;2022-07-11T00:29:29;18.70;;;14.00;;
27269;SDS011;14769;56.934;24.176;2022-07-11T00:30:32;16.48;;;11.93;;
27269;SDS011;14769;56.934;24.176;2022-07-11T00:31:34;14.55;;;11.73;;
27269;SDS011;14769;56.934;24.176;2022-07-11T00:32:36;18.38;;;10.65;;
27269;SDS011;14769;56.934;24.176;2022-07-11T00:33:38;10.70;;;8.63;;
27269;SDS011;14769;56.934;24.176;2022-07-11T00:34:40;12.55;;;8.43;;
27269;SDS011;14769;56.934;24.176;2022-07-11T00:35:42;10.35;;;7.70;;
27269;SDS011;14769;56.934;24.176;2022-07-11T00:36:44;11.45;;;8.20;;
27269;SDS011;14769;56.934;24.176;2022-07-11T00:37:46;11.18;;;8.55;;
27269;SDS011;14769;56.934;24.176;2022-07-11T00:38:48;9.68;;;7.72;;
27269;SDS011;14769;56.934;24.176;2022-07-11T00:39:50;10.30;;;8.27;;
27269;SDS011;14769;56.934;24.176;2022-07-11T00:40:52;10.70;;;8.27;;
27269;SDS011;14769;56.934;24.176;2022-07-11T00:41:54;9.65;;;8.43;;
27269;SDS011;14769;56.934;24.176;2022-07-11T00:42:56;13.40;;;8.98;;
27269;SDS011;14769;56.934;24.176;2022-07-11T00:43:59;13.48;;;9.40;;
27269;SDS011;14769;56.934;24.176;2022-07-11T00:45:02;14.40;;;8.88;;
27269;SDS011;14769;56.934;24.176;2022-07-11T00:46:05;14.95;;;9.20;;
27269;SDS011;14769;56.934;24.176;2022-07-11T00:47:08;14.77;;;8.43;;
27269;SDS011;14769;56.934;24.176;2022-07-11T00:48:10;14.23;;;8.13;;
27269;SDS011;14769;56.934;24.176;2022-07-11T00:49:12;14.20;;;8.63;;
27269;SDS011;14769;56.934;24.176;2022-07-11T00:50:14;45.47;;;10.68;;
27269;SDS011;14769;56.934;24.176;2022-07-11T00:51:20;13.55;;;9.88;;
27269;SDS011;14769;56.934;24.176;2022-07-11T00:52:22;32.70;;;11.45;;
27269;SDS011;14769;56.934;24.176;2022-07-11T00:53:24;36.38;;;11.05;;
27269;SDS011;14769;56.934;24.176;2022-07-11T00:54:27;102.30;;;11.40;;
27269;SDS011;14769;56.934;24.176;2022-07-11T00:55:30;42.65;;;12.00;;
27269;SDS011;14769;56.934;24.176;2022-07-11T00:56:32;41.25;;;15.05;;
27269;SDS011;14769;56.934;24.176;2022-07-11T00:57:35;15.68;;;11.73;;
27269;SDS011;14769;56.934;24.176;2022-07-11T00:58:37;17.17;;;12.13;;
27269;SDS011;14769;56.934;24.176;2022-07-11T00:59:40;15.73;;;12.68;;
27269;SDS011;14769;56.934;24.176;2022-07-11T01:00:42;15.68;;;11.68;;
27269;SDS011;14769;56.934;24.176;2022-07-11T01:01:44;16.85;;;13.27;;
27269;SDS011;14769;56.934;24.176;2022-07-11T01:02:47;9.50;;;8.00;;
27269;SDS011;14769;56.934;24.176;2022-07-11T01:03:49;10.73;;;8.90;;
27269;SDS011;14769;56.934;24.176;2022-07-11T01:04:52;15.50;;;8.52;;
27269;SDS011;14769;56.934;24.176;2022-07-11T01:05:54;15.27;;;9.15;;
27269;SDS011;14769;56.934;24.176;2022-07-11T01:06:56;13.13;;;10.02;;
27269;SDS011;14769;56.934;24.176;2022-07-11T01:07:58;11.05;;;8.48;;
27269;SDS011;14769;56.934;24.176;2022-07-11T01:09:04;9.75;;;7.80;;
27269;SDS011;14769;56.934;24.176;2022-07-11T01:10:06;8.38;;;6.50;;
27269;SDS011;14769;56.934;24.176;2022-07-11T01:11:09;8.13;;;6.88;;
27269;SDS011;14769;56.934;24.176;2022-07-11T01:12:17;10.07;;;6.93;;
27269;SDS011;14769;56.934;24.176;2022-07-11T01:13:19;7.43;;;6.50;;
27269;SDS011;14769;56.934;24.176;2022-07-11T01:14:21;9.88;;;6.47;;
27269;SDS011;14769;56.934;24.176;2022-07-11T01:15:22;8.60;;;6.40;;
27269;SDS011;14769;56.934;24.176;2022-07-11T01:16:25;10.07;;;7.20;;
27269;SDS011;14769;56.934;24.176;2022-07-11T01:17:28;12.98;;;6.57;;
27269;SDS011;14769;56.934;24.176;2022-07-11T01:18:30;11.48;;;6.70;;
27269;SDS011;14769;56.934;24.176;2022-07-11T01:19:32;9.10;;;6.95;;
27269;SDS011;14769;56.934;24.176;2022-07-11T01:20:34;10.23;;;7.47;;
27269;SDS011;14769;56.934;24.176;2022-07-11T01:21:36;10.32;;;6.50;;
27269;SDS011;14769;56.934;24.176;2022-07-11T01:22:46;9.43;;;6.85;;
27269;SDS011;14769;56.934;24.176;2022-07-11T01:23:53;11.88;;;6.80;;
27269;SDS011;14769;56.934;24.176;2022-07-11T01:24:56;8.73;;;7.18;;
27269;SDS011;14769;56.934;24.176;2022-07-11T01:25:58;22.45;;;10.20;;
27269;SDS011;14769;56.934;24.176;2022-07-11T01:27:01;21.15;;;9.15;;
27269;SDS011;14769;56.934;24.176;2022-07-11T01:28:04;44.17;;;11.30;;
27269;SDS011;14769;56.934;24.176;2022-07-11T01:29:11;35.20;;;10.52;;
27269;SDS011;14769;56.934;24.176;2022-07-11T01:30:14;17.77;;;10.75;;
27269;SDS011;14769;56.934;24.176;2022-07-11T01:31:17;18.40;;;9.85;;
27269;SDS011;14769;56.934;24.176;2022-07-11T01:32:20;21.52;;;10.13;;
27269;SDS011;14769;56.934;24.176;2022-07-11T01:33:22;20.58;;;12.02;;
27269;SDS011;14769;56.934;24.176;2022-07-11T01:34:24;32.30;;;12.63;;
27269;SDS011;14769;56.934;24.176;2022-07-11T01:35:27;91.57;;;14.98;;
27269;SDS011;14769;56.934;24.176;2022-07-11T01:36:30;152.07;;;15.50;;
27269;SDS011;14769;56.934;24.176;2022-07-11T01:37:32;113.90;;;13.57;;
27269;SDS011;14769;56.934;24.176;2022-07-11T01:38:34;135.60;;;13.88;;
27269;SDS011;14769;56.934;24.176;2022-07-11T01:39:37;322.05;;;18.10;;
27269;SDS011;14769;56.934;24.176;2022-07-11T01:40:39;487.00;;;22.33;;
27269;SDS011;14769;56.934;24.176;2022-07-11T01:41:41;392.50;;;18.30;;
27269;SDS011;14769;56.934;24.176;2022-07-11T01:42:43;605.20;;;24.45;;
27269;SDS011;14769;56.934;24.176;2022-07-11T01:43:45;487.65;;;24.33;;
27269;SDS011;14769;56.934;24.176;2022-07-11T01:44:47;443.13;;;21.80;;
27269;SDS011;14769;56.934;24.176;2022-07-11T01:45:52;534.85;;;26.13;;
27269;SDS011;14769;56.934;24.176;2022-07-11T01:46:55;86.10;;;16.65;;
27269;SDS011;14769;56.934;24.176;2022-07-11T01:47:56;165.32;;;18.40;;
27269;SDS011;14769;56.934;24.176;2022-07-11T01:48:59;219.82;;;21.20;;
27269;SDS011;14769;56.934;24.176;2022-07-11T01:50:01;257.30;;;21.08;;
27269;SDS011;14769;56.934;24.176;2022-07-11T01:51:03;681.65;;;26.70;;
27269;SDS011;14769;56.934;24.176;2022-07-11T01:52:05;760.13;;;31.30;;
27269;SDS011;14769;56.934;24.176;2022-07-11T01:53:07;379.58;;;26.95;;
27269;SDS011;14769;56.934;24.176;2022-07-11T01:54:09;470.92;;;25.77;;
27269;SDS011;14769;56.934;24.176;2022-07-11T01:55:11;372.48;;;26.70;;
27269;SDS011;14769;56.934;24.176;2022-07-11T01:56:14;417.58;;;27.60;;
27269;SDS011;14769;56.934;24.176;2022-07-11T01:57:20;207.48;;;20.52;;
27269;SDS011;14769;56.934;24.176;2022-07-11T01:58:22;258.20;;;21.83;;
27269;SDS011;14769;56.934;24.176;2022-07-11T01:59:24;291.10;;;21.60;;
27269;SDS011;14769;56.934;24.176;2022-07-11T02:00:26;193.25;;;19.73;;
27269;SDS011;14769;56.934;24.176;2022-07-11T02:01:28;231.77;;;21.95;;
27269;SDS011;14769;56.934;24.176;2022-07-11T02:02:31;201.65;;;20.23;;
27269;SDS011;14769;56.934;24.176;2022-07-11T02:03:33;191.40;;;20.40;;
27269;SDS011;14769;56.934;24.176;2022-07-11T02:04:35;306.17;;;24.60;;
27269;SDS011;14769;56.934;24.176;2022-07-11T02:05:37;395.35;;;27.30;;
27269;SDS011;14769;56.934;24.176;2022-07-11T02:06:42;164.32;;;21.13;;
27269;SDS011;14769;56.934;24.176;2022-07-11T02:07:44;259.90;;;24.85;;
27269;SDS011;14769;56.934;24.176;2022-07-11T02:09:04;451.60;;;34.95;;
27269;SDS011;14769;56.934;24.176;2022-07-11T02:10:06;457.80;;;27.48;;
27269;SDS011;14769;56.934;24.176;2022-07-11T02:11:09;897.45;;;39.63;;
27269;SDS011;14769;56.934;24.176;2022-07-11T02:12:10;481.10;;;34.15;;
27269;SDS011;14769;56.934;24.176;2022-07-11T02:13:13;495.30;;;34.67;;
27269;SDS011;14769;56.934;24.176;2022-07-11T02:14:17;468.35;;;38.03;;
27269;SDS011;14769;56.934;24.176;2022-07-11T02:15:19;588.13;;;44.80;;
27269;SDS011;14769;56.934;24.176;2022-07-11T02:16:21;806.13;;;47.60;;
27269;SDS011;14769;56.934;24.176;2022-07-11T02:17:23;753.80;;;46.08;;
27269;SDS011;14769;56.934;24.176;2022-07-11T02:18:25;749.08;;;48.65;;
27269;SDS011;14769;56.934;24.176;2022-07-11T02:19:27;1077.18;;;51.08;;
27269;SDS011;14769;56.934;24.176;2022-07-11T02:20:29;1159.72;;;56.08;;
27269;SDS011;14769;56.934;24.176;2022-07-11T02:21:32;1199.38;;;55.95;;
27269;SDS011;14769;56.934;24.176;2022-07-11T02:22:34;582.63;;;42.60;;
27269;SDS011;14769;56.934;24.176;2022-07-11T02:23:36;304.27;;;34.53;;
27269;SDS011;14769;56.934;24.176;2022-07-11T02:24:38;834.22;;;43.70;;
27269;SDS011;14769;56.934;24.176;2022-07-11T02:25:40;595.78;;;37.40;;
27269;SDS011;14769;56.934;24.176;2022-07-11T02:26:42;846.30;;;42.78;;
27269;SDS011;14769;56.934;24.176;2022-07-11T02:27:44;408.17;;;39.35;;
27269;SDS011;14769;56.934;24.176;2022-07-11T02:28:46;476.00;;;41.70;;
27269;SDS011;14769;56.934;24.176;2022-07-11T02:29:48;883.13;;;47.25;;
27269;SDS011;14769;56.934;24.176;2022-07-11T02:30:51;821.15;;;45.30;;
27269;SDS011;14769;56.934;24.176;2022-07-11T02:31:53;502.85;;;37.63;;
27269;SDS011;14769;56.934;24.176;2022-07-11T02:32:56;270.25;;;30.77;;
27269;SDS011;14769;56.934;24.176;2022-07-11T02:33:58;507.25;;;41.85;;
27269;SDS011;14769;56.934;24.176;2022-07-11T02:35:00;466.30;;;39.22;;
27269;SDS011;14769;56.934;24.176;2022-07-11T02:36:02;315.02;;;35.80;;
27269;SDS011;14769;56.934;24.176;2022-07-11T02:37:05;248.43;;;28.73;;
27269;SDS011;14769;56.934;24.176;2022-07-11T02:38:07;266.95;;;33.72;;
27269;SDS011;14769;56.934;24.176;2022-07-11T02:39:09;278.73;;;33.03;;
27269;SDS011;14769;56.934;24.176;2022-07-11T02:40:11;268.65;;;33.33;;
27269;SDS011;14769;56.934;24.176;2022-07-11T02:41:13;254.32;;;33.03;;
27269;SDS011;14769;56.934;24.176;2022-07-11T02:42:15;236.65;;;31.42;;
27269;SDS011;14769;56.934;24.176;2022-07-11T02:43:17;179.77;;;31.40;;
27269;SDS011;14769;56.934;24.176;2022-07-11T02:44:19;208.13;;;30.45;;
27269;SDS011;14769;56.934;24.176;2022-07-11T02:45:21;157.57;;;27.00;;
27269;SDS011;14769;56.934;24.176;2022-07-11T02:46:23;130.05;;;25.10;;
27269;SDS011;14769;56.934;24.176;2022-07-11T02:47:25;217.95;;;30.30;;
27269;SDS011;14769;56.934;24.176;2022-07-11T02:48:27;169.27;;;25.33;;
27269;SDS011;14769;56.934;24.176;2022-07-11T02:49:29;237.60;;;30.63;;
27269;SDS011;14769;56.934;24.176;2022-07-11T02:50:34;276.02;;;29.25;;
27269;SDS011;14769;56.934;24.176;2022-07-11T02:51:36;60.47;;;19.42;;
27269;SDS011;14769;56.934;24.176;2022-07-11T02:52:38;299.92;;;29.50;;
27269;SDS011;14769;56.934;24.176;2022-07-11T02:53:41;280.52;;;29.85;;
27269;SDS011;14769;56.934;24.176;2022-07-11T02:54:44;233.70;;;25.75;;
27269;SDS011;14769;56.934;24.176;2022-07-11T02:55:45;93.85;;;24.90;;
27269;SDS011;14769;56.934;24.176;2022-07-11T02:56:49;73.47;;;22.63;;
27269;SDS011;14769;56.934;24.176;2022-07-11T02:57:51;101.65;;;26.45;;
27269;SDS011;14769;56.934;24.176;2022-07-11T02:58:53;117.78;;;25.70;;
27269;SDS011;14769;56.934;24.176;2022-07-11T02:59:55;67.90;;;21.85;;
27269;SDS011;14769;56.934;24.176;2022-07-11T03:00:57;72.68;;;23.20;;
27269;SDS011;14769;56.934;24.176;2022-07-11T03:01:59;87.75;;;23.42;;
27269;SDS011;14769;56.934;24.176;2022-07-11T03:03:01;70.65;;;22.08;;
27269;SDS011;14769;56.934;24.176;2022-07-11T03:04:03;57.85;;;20.08;;
27269;SDS011;14769;56.934;24.176;2022-07-11T03:05:05;82.20;;;18.10;;
27269;SDS011;14769;56.934;24.176;2022-07-11T03:06:08;136.50;;;20.10;;
27269;SDS011;14769;56.934;24.176;2022-07-11T03:07:11;72.18;;;19.95;;
27269;SDS011;14769;56.934;24.176;2022-07-11T03:08:13;24.98;;;18.55;;
27269;SDS011;14769;56.934;24.176;2022-07-11T03:09:15;35.53;;;20.35;;
27269;SDS011;14769;56.934;24.176;2022-07-11T03:10:16;49.40;;;16.42;;
27269;SDS011;14769;56.934;24.176;2022-07-11T03:11:19;29.42;;;16.75;;
27269;SDS011;14769;56.934;24.176;2022-07-11T03:12:21;27.23;;;17.98;;
27269;SDS011;14769;56.934;24.176;2022-07-11T03:13:23;32.50;;;17.88;;
27269;SDS011;14769;56.934;24.176;2022-07-11T03:14:25;93.10;;;21.40;;
27269;SDS011;14769;56.934;24.176;2022-07-11T03:15:27;70.70;;;16.50;;
27269;SDS011;14769;56.934;24.176;2022-07-11T03:16:29;131.68;;;21.52;;
27269;SDS011;14769;56.934;24.176;2022-07-11T03:17:32;172.27;;;22.15;;
27269;SDS011;14769;56.934;24.176;2022-07-11T03:18:34;156.70;;;20.50;;
27269;SDS011;14769;56.934;24.176;2022-07-11T03:19:36;167.75;;;20.63;;
27269;SDS011;14769;56.934;24.176;2022-07-11T03:20:38;447.23;;;22.67;;
27269;SDS011;14769;56.934;24.176;2022-07-11T03:21:40;471.35;;;24.10;;
27269;SDS011;14769;56.934;24.176;2022-07-11T03:22:42;493.63;;;22.75;;
27269;SDS011;14769;56.934;24.176;2022-07-11T03:23:44;308.27;;;21.27;;
27269;SDS011;14769;56.934;24.176;2022-07-11T03:24:45;296.38;;;19.58;;
27269;SDS011;14769;56.934;24.176;2022-07-11T03:25:48;427.45;;;23.67;;
27269;SDS011;14769;56.934;24.176;2022-07-11T03:26:50;306.77;;;20.27;;
27269;SDS011;14769;56.934;24.176;2022-07-11T03:27:51;290.85;;;21.38;;
27269;SDS011;14769;56.934;24.176;2022-07-11T03:28:53;379.02;;;21.70;;
27269;SDS011;14769;56.934;24.176;2022-07-11T03:29:55;335.08;;;21.15;;
27269;SDS011;14769;56.934;24.176;2022-07-11T03:30:57;188.30;;;23.67;;
27269;SDS011;14769;56.934;24.176;2022-07-11T03:31:59;254.20;;;23.20;;
27269;SDS011;14769;56.934;24.176;2022-07-11T03:33:02;205.30;;;20.83;;
27269;SDS011;14769;56.934;24.176;2022-07-11T03:34:04;196.55;;;22.63;;
27269;SDS011;14769;56.934;24.176;2022-07-11T03:35:06;226.75;;;21.85;;
27269;SDS011;14769;56.934;24.176;2022-07-11T03:36:27;65.90;;;19.58;;
27269;SDS011;14769;56.934;24.176;2022-07-11T03:37:29;65.30;;;15.90;;
27269;SDS011;14769;56.934;24.176;2022-07-11T03:38:31;192.13;;;18.88;;
27269;SDS011;14769;56.934;24.176;2022-07-11T03:39:34;40.33;;;16.45;;
27269;SDS011;14769;56.934;24.176;2022-07-11T03:40:36;19.90;;;14.38;;
27269;SDS011;14769;56.934;24.176;2022-07-11T03:41:38;15.80;;;14.10;;
27269;SDS011;14769;56.934;24.176;2022-07-11T03:42:40;68.10;;;16.42;;
27269;SDS011;14769;56.934;24.176;2022-07-11T03:43:42;16.02;;;13.13;;
27269;SDS011;14769;56.934;24.176;2022-07-11T03:44:44;13.32;;;12.02;;
27269;SDS011;14769;56.934;24.176;2022-07-11T03:45:46;12.40;;;11.30;;
27269;SDS011;14769;56.934;24.176;2022-07-11T03:46:48;12.40;;;11.30;;
27269;SDS011;14769;56.934;24.176;2022-07-11T03:47:50;10.02;;;9.13;;
27269;SDS011;14769;56.934;24.176;2022-07-11T03:48:53;10.27;;;9.15;;
27269;SDS011;14769;56.934;24.176;2022-07-11T03:49:55;10.68;;;9.68;;
27269;SDS011;14769;56.934;24.176;2022-07-11T03:50:57;10.85;;;9.85;;
27269;SDS011;14769;56.934;24.176;2022-07-11T03:51:59;10.43;;;9.57;;
27269;SDS011;14769;56.934;24.176;2022-07-11T03:53:01;11.20;;;10.20;;
27269;SDS011;14769;56.934;24.176;2022-07-11T03:54:03;11.70;;;10.40;;
27269;SDS011;14769;56.934;24.176;2022-07-11T03:55:05;11.13;;;10.23;;
27269;SDS011;14769;56.934;24.176;2022-07-11T03:56:08;9.63;;;8.82;;
27269;SDS011;14769;56.934;24.176;2022-07-11T03:57:10;11.15;;;9.95;;
27269;SDS011;14769;56.934;24.176;2022-07-11T03:58:13;11.82;;;10.77;;
27269;SDS011;14769;56.934;24.176;2022-07-11T03:59:15;12.35;;;11.15;;
27269;SDS011;14769;56.934;24.176;2022-07-11T04:00:16;12.10;;;11.00;;
27269;SDS011;14769;56.934;24.176;2022-07-11T04:01:20;13.30;;;11.90;;
27269;SDS011;14769;56.934;24.176;2022-07-11T04:02:23;13.70;;;12.30;;
27269;SDS011;14769;56.934;24.176;2022-07-11T04:03:25;13.13;;;11.70;;
27269;SDS011;14769;56.934;24.176;2022-07-11T04:04:27;12.65;;;11.23;;
27269;SDS011;14769;56.934;24.176;2022-07-11T04:05:29;13.10;;;11.80;;
27269;SDS011;14769;56.934;24.176;2022-07-11T04:06:31;12.52;;;11.32;;
27269;SDS011;14769;56.934;24.176;2022-07-11T04:07:33;12.50;;;11.18;;
27269;SDS011;14769;56.934;24.176;2022-07-11T04:08:35;17.40;;;11.85;;
27269;SDS011;14769;56.934;24.176;2022-07-11T04:09:37;14.93;;;13.05;;
27269;SDS011;14769;56.934;24.176;2022-07-11T04:10:39;15.02;;;13.52;;
27269;SDS011;14769;56.934;24.176;2022-07-11T04:11:41;16.95;;;12.88;;
27269;SDS011;14769;56.934;24.176;2022-07-11T04:12:43;16.05;;;13.52;;
27269;SDS011;14769;56.934;24.176;2022-07-11T04:13:45;18.70;;;13.75;;
27269;SDS011;14769;56.934;24.176;2022-07-11T04:14:48;20.25;;;13.85;;
27269;SDS011;14769;56.934;24.176;2022-07-11T04:15:50;20.42;;;15.45;;
27269;SDS011;14769;56.934;24.176;2022-07-11T04:16:52;18.73;;;14.35;;
27269;SDS011;14769;56.934;24.176;2022-07-11T04:17:54;18.63;;;15.60;;
27269;SDS011;14769;56.934;24.176;2022-07-11T04:18:56;23.20;;;15.93;;
27269;SDS011;14769;56.934;24.176;2022-07-11T04:19:58;18.63;;;15.77;;
27269;SDS011;14769;56.934;24.176;2022-07-11T04:21:00;22.40;;;17.75;;
27269;SDS011;14769;56.934;24.176;2022-07-11T04:22:08;22.33;;;17.73;;
27269;SDS011;14769;56.934;24.176;2022-07-11T04:23:10;23.27;;;18.00;;
27269;SDS011;14769;56.934;24.176;2022-07-11T04:24:12;23.33;;;19.08;;
27269;SDS011;14769;56.934;24.176;2022-07-11T04:25:14;23.73;;;18.25;;
27269;SDS011;14769;56.934;24.176;2022-07-11T04:26:16;28.88;;;19.83;;
27269;SDS011;14769;56.934;24.176;2022-07-11T04:27:18;26.80;;;18.30;;
27269;SDS011;14769;56.934;24.176;2022-07-11T04:28:23;24.85;;;18.80;;
27269;SDS011;14769;56.934;24.176;2022-07-11T04:29:25;23.35;;;18.75;;
27269;SDS011;14769;56.934;24.176;2022-07-11T04:30:27;24.58;;;19.50;;
27269;SDS011;14769;56.934;24.176;2022-07-11T04:31:29;29.67;;;20.52;;
27269;SDS011;14769;56.934;24.176;2022-07-11T04:32:31;25.17;;;20.35;;
27269;SDS011;14769;56.934;24.176;2022-07-11T04:33:33;27.63;;;20.48;;
27269;SDS011;14769;56.934;24.176;2022-07-11T04:34:35;27.60;;;20.77;;
27269;SDS011;14769;56.934;24.176;2022-07-11T04:35:37;26.33;;;21.85;;
27269;SDS011;14769;56.934;24.176;2022-07-11T04:36:39;36.45;;;23.83;;
27269;SDS011;14769;56.934;24.176;2022-07-11T04:37:43;31.00;;;22.35;;
27269;SDS011;14769;56.934;24.176;2022-07-11T04:38:45;29.40;;;23.60;;
27269;SDS011;14769;56.934;24.176;2022-07-11T04:39:47;34.95;;;25.25;;
27269;SDS011;14769;56.934;24.176;2022-07-11T04:40:49;32.03;;;23.13;;
27269;SDS011;14769;56.934;24.176;2022-07-11T04:41:51;31.50;;;22.27;;
27269;SDS011;14769;56.934;24.176;2022-07-11T04:42:53;28.83;;;22.05;;
27269;SDS011;14769;56.934;24.176;2022-07-11T04:43:55;29.02;;;22.35;;
27269;SDS011;14769;56.934;24.176;2022-07-11T04:44:57;29.75;;;22.58;;
27269;SDS011;14769;56.934;24.176;2022-07-11T04:46:01;31.05;;;23.15;;
27269;SDS011;14769;56.934;24.176;2022-07-11T04:47:03;31.70;;;21.75;;
27269;SDS011;14769;56.934;24.176;2022-07-11T04:48:05;34.85;;;22.88;;
27269;SDS011;14769;56.934;24.176;2022-07-11T04:49:07;35.83;;;22.63;;
27269;SDS011;14769;56.934;24.176;2022-07-11T04:50:09;29.70;;;22.13;;
27269;SDS011;14769;56.934;24.176;2022-07-11T04:51:11;28.35;;;21.40;;
27269;SDS011;14769;56.934;24.176;2022-07-11T04:52:15;22.80;;;19.45;;
27269;SDS011;14769;56.934;24.176;2022-07-11T04:53:17;23.35;;;17.95;;
27269;SDS011;14769;56.934;24.176;2022-07-11T04:54:19;23.17;;;19.05;;
27269;SDS011;14769;56.934;24.176;2022-07-11T04:55:20;23.45;;;19.30;;
27269;SDS011;14769;56.934;24.176;2022-07-11T04:56:22;22.63;;;19.60;;
27269;SDS011;14769;56.934;24.176;2022-07-11T04:57:25;24.77;;;18.65;;
27269;SDS011;14769;56.934;24.176;2022-07-11T04:58:27;20.05;;;17.42;;
27269;SDS011;14769;56.934;24.176;2022-07-11T04:59:33;21.40;;;17.83;;
27269;SDS011;14769;56.934;24.176;2022-07-11T05:00:36;22.08;;;16.90;;
27269;SDS011;14769;56.934;24.176;2022-07-11T05:01:43;21.92;;;16.60;;
27269;SDS011;14769;56.934;24.176;2022-07-11T05:02:46;18.88;;;15.45;;
27269;SDS011;14769;56.934;24.176;2022-07-11T05:03:48;18.10;;;14.68;;
27269;SDS011;14769;56.934;24.176;2022-07-11T05:04:50;16.92;;;14.38;;
27269;SDS011;14769;56.934;24.176;2022-07-11T05:05:52;15.77;;;13.45;;
27269;SDS011;14769;56.934;24.176;2022-07-11T05:06:54;16.05;;;14.35;;
27269;SDS011;14769;56.934;24.176;2022-07-11T05:07:56;17.50;;;15.20;;
27269;SDS011;14769;56.934;24.176;2022-07-11T05:08:59;17.02;;;14.80;;
27269;SDS011;14769;56.934;24.176;2022-07-11T05:10:01;16.88;;;15.07;;
27269;SDS011;14769;56.934;24.176;2022-07-11T05:11:04;21.02;;;13.77;;
27269;SDS011;14769;56.934;24.176;2022-07-11T05:12:07;14.43;;;12.93;;
27269;SDS011;14769;56.934;24.176;2022-07-11T05:13:09;17.75;;;14.27;;
27269;SDS011;14769;56.934;24.176;2022-07-11T05:14:11;15.32;;;13.73;;
27269;SDS011;14769;56.934;24.176;2022-07-11T05:15:13;15.07;;;13.45;;
27269;SDS011;14769;56.934;24.176;2022-07-11T05:16:15;16.80;;;14.20;;
27269;SDS011;14769;56.934;24.176;2022-07-11T05:17:17;13.48;;;12.10;;
27269;SDS011;14769;56.934;24.176;2022-07-11T05:18:20;9.68;;;8.65;;
27269;SDS011;14769;56.934;24.176;2022-07-11T05:19:22;11.40;;;8.90;;
27269;SDS011;14769;56.934;24.176;2022-07-11T05:20:25;8.90;;;7.72;;
27269;SDS011;14769;56.934;24.176;2022-07-11T05:21:26;8.27;;;7.47;;
27269;SDS011;14769;56.934;24.176;2022-07-11T05:22:30;8.23;;;7.05;;
27269;SDS011;14769;56.934;24.176;2022-07-11T05:23:32;6.93;;;6.20;;
27269;SDS011;14769;56.934;24.176;2022-07-11T05:24:33;7.70;;;6.07;;
27269;SDS011;14769;56.934;24.176;2022-07-11T05:25:35;5.65;;;5.13;;
27269;SDS011;14769;56.934;24.176;2022-07-11T05:26:37;7.13;;;5.10;;
27269;SDS011;14769;56.934;24.176;2022-07-11T05:27:39;6.85;;;5.20;;
27269;SDS011;14769;56.934;24.176;2022-07-11T05:28:41;7.05;;;5.22;;
27269;SDS011;14769;56.934;24.176;2022-07-11T05:29:43;5.43;;;4.95;;
27269;SDS011;14769;56.934;24.176;2022-07-11T05:30:45;8.55;;;4.75;;
27269;SDS011;14769;56.934;24.176;2022-07-11T05:31:47;6.40;;;4.60;;
27269;SDS011;14769;56.934;24.176;2022-07-11T05:32:51;7.82;;;4.25;;
27269;SDS011;14769;56.934;24.176;2022-07-11T05:33:54;5.00;;;4.18;;
27269;SDS011;14769;56.934;24.176;2022-07-11T05:34:56;5.85;;;3.63;;
27269;SDS011;14769;56.934;24.176;2022-07-11T05:36:03;4.88;;;3.70;;
27269;SDS011;14769;56.934;24.176;2022-07-11T05:37:05;4.55;;;3.45;;
27269;SDS011;14769;56.934;24.176;2022-07-11T05:38:07;4.25;;;3.42;;
27269;SDS011;14769;56.934;24.176;2022-07-11T05:39:09;3.92;;;3.47;;
27269;SDS011;14769;56.934;24.176;2022-07-11T05:40:11;8.63;;;3.95;;
27269;SDS011;14769;56.934;24.176;2022-07-11T05:41:13;4.47;;;3.67;;
27269;SDS011;14769;56.934;24.176;2022-07-11T05:42:15;4.22;;;3.80;;
27269;SDS011;14769;56.934;24.176;2022-07-11T05:43:17;3.72;;;3.38;;
27269;SDS011;14769;56.934;24.176;2022-07-11T05:44:19;3.70;;;3.25;;
27269;SDS011;14769;56.934;24.176;2022-07-11T05:45:20;3.63;;;3.30;;
27269;SDS011;14769;56.934;24.176;2022-07-11T05:46:22;4.80;;;3.60;;
27269;SDS011;14769;56.934;24.176;2022-07-11T05:47:24;6.22;;;3.17;;
27269;SDS011;14769;56.934;24.176;2022-07-11T05:48:26;4.82;;;3.45;;
27269;SDS011;14769;56.934;24.176;2022-07-11T05:49:30;4.93;;;3.28;;
27269;SDS011;14769;56.934;24.176;2022-07-11T05:50:32;6.50;;;3.38;;
27269;SDS011;14769;56.934;24.176;2022-07-11T05:51:35;3.38;;;3.08;;
27269;SDS011;14769;56.934;24.176;2022-07-11T05:52:37;4.03;;;3.55;;
27269;SDS011;14769;56.934;24.176;2022-07-11T05:53:39;4.93;;;3.08;;
27269;SDS011;14769;56.934;24.176;2022-07-11T05:54:42;5.13;;;3.30;;
27269;SDS011;14769;56.934;24.176;2022-07-11T05:55:44;3.97;;;3.05;;
27269;SDS011;14769;56.934;24.176;2022-07-11T05:56:45;4.60;;;3.08;;
27269;SDS011;14769;56.934;24.176;2022-07-11T05:57:47;5.93;;;3.33;;
27269;SDS011;14769;56.934;24.176;2022-07-11T05:58:49;4.35;;;3.42;;
27269;SDS011;14769;56.934;24.176;2022-07-11T05:59:51;4.55;;;3.20;;
27269;SDS011;14769;56.934;24.176;2022-07-11T06:00:57;3.30;;;3.00;;